sensor_id;sensor_type;location;lat;lon;timestamp;P1;durP1;ratioP1;P2;durP2;ratioP2
38399;SDS011;24180;42.676;23.320;2023-05-23T00:01:34;25.27;;;16.80;;
38399;SDS011;24180;42.676;23.320;2023-05-23T00:04:02;20.73;;;18.30;;
38399;SDS011;24180;42.676;23.320;2023-05-23T00:06:27;20.17;;;18.00;;
38399;SDS011;24180;42.676;23.320;2023-05-23T00:08:53;19.40;;;17.27;;
38399;SDS011;24180;42.676;23.320;2023-05-23T00:11:18;18.17;;;16.27;;
38399;SDS011;24180;42.676;23.320;2023-05-23T00:13:47;18.30;;;16.50;;
38399;SDS011;24180;42.676;23.320;2023-05-23T00:16:15;19.23;;;17.07;;
38399;SDS011;24180;42.676;23.320;2023-05-23T00:18:41;19.63;;;17.20;;
38399;SDS011;24180;42.676;23.320;2023-05-23T00:21:07;22.93;;;17.90;;
38399;SDS011;24180;42.676;23.320;2023-05-23T00:23:33;21.47;;;18.13;;
38399;SDS011;24180;42.676;23.320;2023-05-23T00:25:59;22.23;;;17.70;;
38399;SDS011;24180;42.676;23.320;2023-05-23T00:28:24;27.00;;;18.20;;
38399;SDS011;24180;42.676;23.320;2023-05-23T00:30:50;23.10;;;16.93;;
38399;SDS011;24180;42.676;23.320;2023-05-23T00:33:16;21.07;;;16.77;;
38399;SDS011;24180;42.676;23.320;2023-05-23T00:35:41;23.30;;;16.83;;
38399;SDS011;24180;42.676;23.320;2023-05-23T00:38:07;20.63;;;16.27;;
38399;SDS011;24180;42.676;23.320;2023-05-23T00:40:33;17.47;;;15.70;;
38399;SDS011;24180;42.676;23.320;2023-05-23T00:42:59;19.37;;;16.27;;
38399;SDS011;24180;42.676;23.320;2023-05-23T00:45:25;19.27;;;17.00;;
38399;SDS011;24180;42.676;23.320;2023-05-23T00:47:51;18.97;;;17.07;;
38399;SDS011;24180;42.676;23.320;2023-05-23T00:50:17;19.93;;;15.70;;
38399;SDS011;24180;42.676;23.320;2023-05-23T00:52:44;20.57;;;16.30;;
38399;SDS011;24180;42.676;23.320;2023-05-23T00:55:12;18.73;;;16.83;;
38399;SDS011;24180;42.676;23.320;2023-05-23T00:57:38;19.13;;;16.03;;
38399;SDS011;24180;42.676;23.320;2023-05-23T01:00:08;19.30;;;16.70;;
38399;SDS011;24180;42.676;23.320;2023-05-23T01:02:41;22.80;;;16.83;;
38399;SDS011;24180;42.676;23.320;2023-05-23T01:05:12;18.27;;;15.97;;
38399;SDS011;24180;42.676;23.320;2023-05-23T01:07:41;16.67;;;14.97;;
38399;SDS011;24180;42.676;23.320;2023-05-23T01:10:07;19.00;;;16.10;;
38399;SDS011;24180;42.676;23.320;2023-05-23T01:15:19;17.13;;;15.33;;
38399;SDS011;24180;42.676;23.320;2023-05-23T01:20:27;18.77;;;15.50;;
38399;SDS011;24180;42.676;23.320;2023-05-23T01:22:59;19.93;;;15.83;;
38399;SDS011;24180;42.676;23.320;2023-05-23T01:28:24;18.60;;;15.53;;
38399;SDS011;24180;42.676;23.320;2023-05-23T01:30:54;18.27;;;16.13;;
38399;SDS011;24180;42.676;23.320;2023-05-23T01:33:22;18.77;;;15.60;;
38399;SDS011;24180;42.676;23.320;2023-05-23T01:35:50;17.63;;;15.13;;
38399;SDS011;24180;42.676;23.320;2023-05-23T01:38:16;22.43;;;16.33;;
38399;SDS011;24180;42.676;23.320;2023-05-23T01:40:41;21.33;;;16.63;;
38399;SDS011;24180;42.676;23.320;2023-05-23T01:43:07;21.30;;;17.90;;
38399;SDS011;24180;42.676;23.320;2023-05-23T01:45:33;20.30;;;18.07;;
38399;SDS011;24180;42.676;23.320;2023-05-23T01:47:58;26.33;;;20.33;;
38399;SDS011;24180;42.676;23.320;2023-05-23T01:50:25;42.50;;;24.47;;
38399;SDS011;24180;42.676;23.320;2023-05-23T01:52:51;28.40;;;23.23;;
38399;SDS011;24180;42.676;23.320;2023-05-23T01:55:18;30.23;;;23.73;;
38399;SDS011;24180;42.676;23.320;2023-05-23T01:57:47;34.67;;;25.27;;
38399;SDS011;24180;42.676;23.320;2023-05-23T02:00:14;48.17;;;25.87;;
38399;SDS011;24180;42.676;23.320;2023-05-23T02:02:40;36.60;;;25.30;;
38399;SDS011;24180;42.676;23.320;2023-05-23T02:05:06;38.13;;;27.10;;
38399;SDS011;24180;42.676;23.320;2023-05-23T02:07:33;205.30;;;33.60;;
38399;SDS011;24180;42.676;23.320;2023-05-23T02:09:58;34.03;;;25.53;;
38399;SDS011;24180;42.676;23.320;2023-05-23T02:12:24;35.13;;;25.43;;
38399;SDS011;24180;42.676;23.320;2023-05-23T02:14:49;41.20;;;26.33;;
38399;SDS011;24180;42.676;23.320;2023-05-23T02:17:18;99.70;;;29.07;;
38399;SDS011;24180;42.676;23.320;2023-05-23T02:19:43;45.97;;;27.17;;
38399;SDS011;24180;42.676;23.320;2023-05-23T02:22:08;61.53;;;25.97;;
38399;SDS011;24180;42.676;23.320;2023-05-23T02:24:34;52.53;;;26.80;;
38399;SDS011;24180;42.676;23.320;2023-05-23T02:26:59;33.77;;;25.47;;
38399;SDS011;24180;42.676;23.320;2023-05-23T02:29:25;35.90;;;24.50;;
38399;SDS011;24180;42.676;23.320;2023-05-23T02:31:50;55.83;;;25.70;;
38399;SDS011;24180;42.676;23.320;2023-05-23T02:34:15;48.00;;;26.03;;
38399;SDS011;24180;42.676;23.320;2023-05-23T02:36:41;51.57;;;26.17;;
38399;SDS011;24180;42.676;23.320;2023-05-23T02:39:06;35.80;;;25.80;;
38399;SDS011;24180;42.676;23.320;2023-05-23T02:41:32;31.87;;;24.80;;
38399;SDS011;24180;42.676;23.320;2023-05-23T02:43:57;28.47;;;22.00;;
38399;SDS011;24180;42.676;23.320;2023-05-23T02:46:23;28.93;;;22.70;;
38399;SDS011;24180;42.676;23.320;2023-05-23T02:48:49;26.33;;;21.67;;
38399;SDS011;24180;42.676;23.320;2023-05-23T02:51:14;25.70;;;21.40;;
38399;SDS011;24180;42.676;23.320;2023-05-23T02:53:40;27.23;;;20.83;;
38399;SDS011;24180;42.676;23.320;2023-05-23T02:56:06;23.83;;;20.73;;
38399;SDS011;24180;42.676;23.320;2023-05-23T02:58:32;24.37;;;20.80;;
38399;SDS011;24180;42.676;23.320;2023-05-23T03:01:00;27.37;;;21.77;;
38399;SDS011;24180;42.676;23.320;2023-05-23T03:03:26;24.70;;;19.90;;
38399;SDS011;24180;42.676;23.320;2023-05-23T03:05:52;23.40;;;19.70;;
38399;SDS011;24180;42.676;23.320;2023-05-23T03:08:18;24.70;;;20.80;;
38399;SDS011;24180;42.676;23.320;2023-05-23T03:10:44;21.93;;;18.77;;
38399;SDS011;24180;42.676;23.320;2023-05-23T03:13:09;23.73;;;19.57;;
38399;SDS011;24180;42.676;23.320;2023-05-23T03:15:35;23.47;;;20.60;;
38399;SDS011;24180;42.676;23.320;2023-05-23T03:18:00;25.20;;;20.77;;
38399;SDS011;24180;42.676;23.320;2023-05-23T03:20:26;28.60;;;22.27;;
38399;SDS011;24180;42.676;23.320;2023-05-23T03:22:51;27.87;;;21.43;;
38399;SDS011;24180;42.676;23.320;2023-05-23T03:25:17;32.70;;;24.30;;
38399;SDS011;24180;42.676;23.320;2023-05-23T03:27:43;170.47;;;32.97;;
38399;SDS011;24180;42.676;23.320;2023-05-23T03:30:08;156.07;;;31.90;;
38399;SDS011;24180;42.676;23.320;2023-05-23T03:32:34;118.13;;;28.67;;
38399;SDS011;24180;42.676;23.320;2023-05-23T03:35:00;222.87;;;35.07;;
38399;SDS011;24180;42.676;23.320;2023-05-23T03:37:25;81.73;;;28.73;;
38399;SDS011;24180;42.676;23.320;2023-05-23T03:39:51;48.10;;;28.47;;
38399;SDS011;24180;42.676;23.320;2023-05-23T03:42:16;39.87;;;27.83;;
38399;SDS011;24180;42.676;23.320;2023-05-23T03:44:42;41.90;;;27.00;;
38399;SDS011;24180;42.676;23.320;2023-05-23T03:47:08;42.00;;;28.33;;
38399;SDS011;24180;42.676;23.320;2023-05-23T03:49:33;44.00;;;29.00;;
38399;SDS011;24180;42.676;23.320;2023-05-23T03:51:59;37.97;;;28.57;;
38399;SDS011;24180;42.676;23.320;2023-05-23T03:54:24;38.13;;;27.50;;
38399;SDS011;24180;42.676;23.320;2023-05-23T03:56:50;36.37;;;26.63;;
38399;SDS011;24180;42.676;23.320;2023-05-23T03:59:17;32.03;;;24.53;;
38399;SDS011;24180;42.676;23.320;2023-05-23T04:01:42;34.23;;;25.83;;
38399;SDS011;24180;42.676;23.320;2023-05-23T04:04:08;31.43;;;25.73;;
38399;SDS011;24180;42.676;23.320;2023-05-23T04:06:33;29.33;;;23.83;;
38399;SDS011;24180;42.676;23.320;2023-05-23T04:08:59;32.13;;;24.37;;
38399;SDS011;24180;42.676;23.320;2023-05-23T04:11:25;33.73;;;24.37;;
38399;SDS011;24180;42.676;23.320;2023-05-23T04:13:50;30.03;;;23.80;;
38399;SDS011;24180;42.676;23.320;2023-05-23T04:16:16;28.23;;;22.77;;
38399;SDS011;24180;42.676;23.320;2023-05-23T04:18:41;28.57;;;23.43;;
38399;SDS011;24180;42.676;23.320;2023-05-23T04:21:07;31.13;;;24.13;;
38399;SDS011;24180;42.676;23.320;2023-05-23T04:23:33;31.97;;;23.60;;
38399;SDS011;24180;42.676;23.320;2023-05-23T04:25:58;28.50;;;21.30;;
38399;SDS011;24180;42.676;23.320;2023-05-23T04:28:25;27.37;;;22.30;;
38399;SDS011;24180;42.676;23.320;2023-05-23T04:30:51;33.83;;;22.30;;
38399;SDS011;24180;42.676;23.320;2023-05-23T04:33:17;27.70;;;21.97;;
38399;SDS011;24180;42.676;23.320;2023-05-23T04:35:43;29.70;;;23.67;;
38399;SDS011;24180;42.676;23.320;2023-05-23T04:38:08;29.07;;;22.63;;
38399;SDS011;24180;42.676;23.320;2023-05-23T04:40:34;29.90;;;22.43;;
38399;SDS011;24180;42.676;23.320;2023-05-23T04:43:00;29.90;;;22.20;;
38399;SDS011;24180;42.676;23.320;2023-05-23T04:45:25;26.50;;;20.67;;
38399;SDS011;24180;42.676;23.320;2023-05-23T04:47:51;31.10;;;23.47;;
38399;SDS011;24180;42.676;23.320;2023-05-23T04:50:18;31.47;;;23.87;;
38399;SDS011;24180;42.676;23.320;2023-05-23T04:52:46;28.73;;;23.07;;
38399;SDS011;24180;42.676;23.320;2023-05-23T04:55:11;30.57;;;24.00;;
38399;SDS011;24180;42.676;23.320;2023-05-23T04:57:36;31.23;;;23.27;;
38399;SDS011;24180;42.676;23.320;2023-05-23T05:00:03;35.73;;;23.87;;
38399;SDS011;24180;42.676;23.320;2023-05-23T05:02:34;37.60;;;23.07;;
38399;SDS011;24180;42.676;23.320;2023-05-23T05:05:03;29.77;;;22.70;;
38399;SDS011;24180;42.676;23.320;2023-05-23T05:07:29;32.03;;;24.17;;
38399;SDS011;24180;42.676;23.320;2023-05-23T05:09:55;45.17;;;24.53;;
38399;SDS011;24180;42.676;23.320;2023-05-23T05:12:20;29.27;;;24.03;;
38399;SDS011;24180;42.676;23.320;2023-05-23T05:14:45;34.00;;;24.63;;
38399;SDS011;24180;42.676;23.320;2023-05-23T05:17:11;36.83;;;24.57;;
38399;SDS011;24180;42.676;23.320;2023-05-23T05:19:36;33.00;;;25.30;;
38399;SDS011;24180;42.676;23.320;2023-05-23T05:22:02;36.77;;;26.60;;
38399;SDS011;24180;42.676;23.320;2023-05-23T05:24:28;32.43;;;25.47;;
38399;SDS011;24180;42.676;23.320;2023-05-23T05:26:53;34.43;;;23.33;;
38399;SDS011;24180;42.676;23.320;2023-05-23T05:29:19;30.63;;;23.90;;
38399;SDS011;24180;42.676;23.320;2023-05-23T05:31:45;35.80;;;24.77;;
38399;SDS011;24180;42.676;23.320;2023-05-23T05:34:11;29.53;;;23.07;;
38399;SDS011;24180;42.676;23.320;2023-05-23T05:36:37;35.53;;;24.27;;
38399;SDS011;24180;42.676;23.320;2023-05-23T05:39:09;34.40;;;23.37;;
38399;SDS011;24180;42.676;23.320;2023-05-23T05:41:35;35.43;;;23.80;;
38399;SDS011;24180;42.676;23.320;2023-05-23T05:44:00;39.67;;;25.50;;
38399;SDS011;24180;42.676;23.320;2023-05-23T05:46:26;42.07;;;26.47;;
38399;SDS011;24180;42.676;23.320;2023-05-23T05:48:51;43.10;;;27.00;;
38399;SDS011;24180;42.676;23.320;2023-05-23T05:51:16;38.77;;;25.87;;
38399;SDS011;24180;42.676;23.320;2023-05-23T05:53:42;39.00;;;24.97;;
38399;SDS011;24180;42.676;23.320;2023-05-23T05:56:07;34.90;;;24.17;;
38399;SDS011;24180;42.676;23.320;2023-05-23T05:58:33;38.33;;;26.53;;
38399;SDS011;24180;42.676;23.320;2023-05-23T06:00:58;37.87;;;25.03;;
38399;SDS011;24180;42.676;23.320;2023-05-23T06:03:24;37.60;;;24.43;;
38399;SDS011;24180;42.676;23.320;2023-05-23T06:05:51;36.97;;;24.13;;
38399;SDS011;24180;42.676;23.320;2023-05-23T06:08:16;36.67;;;24.90;;
38399;SDS011;24180;42.676;23.320;2023-05-23T06:10:41;37.50;;;24.57;;
38399;SDS011;24180;42.676;23.320;2023-05-23T06:13:07;35.80;;;24.77;;
38399;SDS011;24180;42.676;23.320;2023-05-23T06:15:32;33.53;;;23.33;;
38399;SDS011;24180;42.676;23.320;2023-05-23T06:17:57;32.57;;;25.23;;
38399;SDS011;24180;42.676;23.320;2023-05-23T06:20:23;33.03;;;24.00;;
38399;SDS011;24180;42.676;23.320;2023-05-23T06:22:48;36.37;;;24.90;;
38399;SDS011;24180;42.676;23.320;2023-05-23T06:25:14;32.93;;;25.50;;
38399;SDS011;24180;42.676;23.320;2023-05-23T06:27:39;35.07;;;24.93;;
38399;SDS011;24180;42.676;23.320;2023-05-23T06:30:05;34.43;;;24.30;;
38399;SDS011;24180;42.676;23.320;2023-05-23T06:32:31;30.77;;;23.80;;
38399;SDS011;24180;42.676;23.320;2023-05-23T06:34:56;27.00;;;23.57;;
38399;SDS011;24180;42.676;23.320;2023-05-23T06:37:22;28.07;;;23.57;;
38399;SDS011;24180;42.676;23.320;2023-05-23T06:39:47;30.87;;;23.97;;
38399;SDS011;24180;42.676;23.320;2023-05-23T06:42:13;30.97;;;23.40;;
38399;SDS011;24180;42.676;23.320;2023-05-23T06:44:39;32.83;;;23.70;;
38399;SDS011;24180;42.676;23.320;2023-05-23T06:47:05;33.30;;;23.73;;
38399;SDS011;24180;42.676;23.320;2023-05-23T06:49:30;30.70;;;24.60;;
38399;SDS011;24180;42.676;23.320;2023-05-23T06:51:55;30.57;;;24.63;;
38399;SDS011;24180;42.676;23.320;2023-05-23T06:54:21;28.97;;;23.00;;
38399;SDS011;24180;42.676;23.320;2023-05-23T06:56:46;28.27;;;23.17;;
38399;SDS011;24180;42.676;23.320;2023-05-23T06:59:12;28.13;;;24.00;;
38399;SDS011;24180;42.676;23.320;2023-05-23T07:01:37;32.80;;;25.93;;
38399;SDS011;24180;42.676;23.320;2023-05-23T07:04:03;31.63;;;25.30;;
38399;SDS011;24180;42.676;23.320;2023-05-23T07:06:28;28.90;;;24.93;;
38399;SDS011;24180;42.676;23.320;2023-05-23T07:08:55;32.30;;;25.93;;
38399;SDS011;24180;42.676;23.320;2023-05-23T07:11:20;32.83;;;25.40;;
38399;SDS011;24180;42.676;23.320;2023-05-23T07:13:46;32.90;;;25.50;;
38399;SDS011;24180;42.676;23.320;2023-05-23T07:16:12;31.60;;;24.07;;
38399;SDS011;24180;42.676;23.320;2023-05-23T07:18:37;30.77;;;23.33;;
38399;SDS011;24180;42.676;23.320;2023-05-23T07:21:03;31.27;;;24.30;;
38399;SDS011;24180;42.676;23.320;2023-05-23T07:23:31;29.90;;;23.43;;
38399;SDS011;24180;42.676;23.320;2023-05-23T07:25:58;27.97;;;21.87;;
38399;SDS011;24180;42.676;23.320;2023-05-23T07:28:23;30.90;;;22.23;;
38399;SDS011;24180;42.676;23.320;2023-05-23T07:30:49;27.10;;;22.27;;
38399;SDS011;24180;42.676;23.320;2023-05-23T07:33:15;25.57;;;21.73;;
38399;SDS011;24180;42.676;23.320;2023-05-23T07:35:40;25.60;;;20.93;;
38399;SDS011;24180;42.676;23.320;2023-05-23T07:38:06;29.63;;;21.30;;
38399;SDS011;24180;42.676;23.320;2023-05-23T07:40:31;26.87;;;22.20;;
38399;SDS011;24180;42.676;23.320;2023-05-23T07:42:56;27.73;;;23.47;;
38399;SDS011;24180;42.676;23.320;2023-05-23T07:45:24;26.93;;;23.57;;
38399;SDS011;24180;42.676;23.320;2023-05-23T07:47:50;28.97;;;22.80;;
38399;SDS011;24180;42.676;23.320;2023-05-23T07:50:16;29.50;;;23.50;;
38399;SDS011;24180;42.676;23.320;2023-05-23T07:52:42;32.90;;;25.53;;
38399;SDS011;24180;42.676;23.320;2023-05-23T07:55:08;28.43;;;24.10;;
38399;SDS011;24180;42.676;23.320;2023-05-23T07:57:34;32.93;;;24.87;;
38399;SDS011;24180;42.676;23.320;2023-05-23T07:59:59;38.87;;;26.57;;
38399;SDS011;24180;42.676;23.320;2023-05-23T08:02:24;33.57;;;25.63;;
38399;SDS011;24180;42.676;23.320;2023-05-23T08:04:50;31.30;;;25.67;;
38399;SDS011;24180;42.676;23.320;2023-05-23T08:07:17;29.20;;;23.83;;
38399;SDS011;24180;42.676;23.320;2023-05-23T08:09:42;31.33;;;23.67;;
38399;SDS011;24180;42.676;23.320;2023-05-23T08:12:08;34.67;;;25.47;;
38399;SDS011;24180;42.676;23.320;2023-05-23T08:14:34;29.60;;;24.47;;
38399;SDS011;24180;42.676;23.320;2023-05-23T08:16:59;30.20;;;23.30;;
38399;SDS011;24180;42.676;23.320;2023-05-23T08:19:25;27.73;;;23.73;;
38399;SDS011;24180;42.676;23.320;2023-05-23T08:21:50;28.27;;;25.03;;
38399;SDS011;24180;42.676;23.320;2023-05-23T08:24:17;24.23;;;21.63;;
38399;SDS011;24180;42.676;23.320;2023-05-23T08:26:45;24.77;;;21.00;;
38399;SDS011;24180;42.676;23.320;2023-05-23T08:29:11;25.70;;;21.93;;
38399;SDS011;24180;42.676;23.320;2023-05-23T08:31:37;24.73;;;21.43;;
38399;SDS011;24180;42.676;23.320;2023-05-23T08:34:03;24.43;;;20.37;;
38399;SDS011;24180;42.676;23.320;2023-05-23T08:36:28;24.50;;;22.07;;
38399;SDS011;24180;42.676;23.320;2023-05-23T08:38:55;26.17;;;23.67;;
38399;SDS011;24180;42.676;23.320;2023-05-23T08:41:22;24.37;;;22.17;;
38399;SDS011;24180;42.676;23.320;2023-05-23T08:43:48;17.83;;;15.97;;
38399;SDS011;24180;42.676;23.320;2023-05-23T08:46:14;18.03;;;16.23;;
38399;SDS011;24180;42.676;23.320;2023-05-23T08:48:41;16.97;;;15.37;;
38399;SDS011;24180;42.676;23.320;2023-05-23T08:51:08;18.53;;;14.50;;
38399;SDS011;24180;42.676;23.320;2023-05-23T08:53:36;16.77;;;15.27;;
38399;SDS011;24180;42.676;23.320;2023-05-23T08:56:03;15.93;;;14.47;;
38399;SDS011;24180;42.676;23.320;2023-05-23T08:58:30;14.53;;;12.70;;
38399;SDS011;24180;42.676;23.320;2023-05-23T09:00:56;14.07;;;12.80;;
38399;SDS011;24180;42.676;23.320;2023-05-23T09:03:24;13.30;;;11.90;;
38399;SDS011;24180;42.676;23.320;2023-05-23T09:05:50;14.27;;;12.70;;
38399;SDS011;24180;42.676;23.320;2023-05-23T09:08:21;12.90;;;11.70;;
38399;SDS011;24180;42.676;23.320;2023-05-23T09:10:48;12.53;;;11.23;;
38399;SDS011;24180;42.676;23.320;2023-05-23T09:13:15;13.80;;;9.80;;
38399;SDS011;24180;42.676;23.320;2023-05-23T09:16:00;11.23;;;10.03;;
38399;SDS011;24180;42.676;23.320;2023-05-23T09:18:32;18.83;;;10.97;;
38399;SDS011;24180;42.676;23.320;2023-05-23T09:20:59;12.53;;;11.33;;
38399;SDS011;24180;42.676;23.320;2023-05-23T09:23:27;12.37;;;9.93;;
38399;SDS011;24180;42.676;23.320;2023-05-23T09:25:54;8.80;;;7.90;;
38399;SDS011;24180;42.676;23.320;2023-05-23T09:28:20;10.23;;;8.33;;
38399;SDS011;24180;42.676;23.320;2023-05-23T09:30:45;8.90;;;7.40;;
38399;SDS011;24180;42.676;23.320;2023-05-23T09:33:12;9.17;;;6.67;;
38399;SDS011;24180;42.676;23.320;2023-05-23T09:35:42;7.87;;;7.27;;
38399;SDS011;24180;42.676;23.320;2023-05-23T09:38:09;11.60;;;7.80;;
38399;SDS011;24180;42.676;23.320;2023-05-23T09:40:34;10.27;;;8.03;;
38399;SDS011;24180;42.676;23.320;2023-05-23T09:43:03;11.37;;;8.27;;
38399;SDS011;24180;42.676;23.320;2023-05-23T09:45:29;11.97;;;10.30;;
38399;SDS011;24180;42.676;23.320;2023-05-23T09:47:56;11.03;;;8.80;;
38399;SDS011;24180;42.676;23.320;2023-05-23T09:50:22;7.07;;;6.03;;
38399;SDS011;24180;42.676;23.320;2023-05-23T09:52:48;7.30;;;6.37;;
38399;SDS011;24180;42.676;23.320;2023-05-23T09:55:15;7.83;;;7.03;;
38399;SDS011;24180;42.676;23.320;2023-05-23T09:57:41;6.88;;;6.00;;
38399;SDS011;24180;42.676;23.320;2023-05-23T10:00:07;9.33;;;8.30;;
38399;SDS011;24180;42.676;23.320;2023-05-23T10:08:13;12.98;;;9.30;;
38399;SDS011;24180;42.676;23.320;2023-05-23T10:13:17;6.47;;;5.72;;
38399;SDS011;24180;42.676;23.320;2023-05-23T10:15:44;10.55;;;7.25;;
38399;SDS011;24180;42.676;23.320;2023-05-23T10:18:13;8.27;;;7.57;;
38399;SDS011;24180;42.676;23.320;2023-05-23T10:20:42;6.65;;;5.95;;
38399;SDS011;24180;42.676;23.320;2023-05-23T10:23:13;9.38;;;5.20;;
38399;SDS011;24180;42.676;23.320;2023-05-23T10:25:40;29.05;;;8.85;;
38399;SDS011;24180;42.676;23.320;2023-05-23T10:28:08;13.05;;;6.38;;
38399;SDS011;24180;42.676;23.320;2023-05-23T10:30:34;9.10;;;5.57;;
38399;SDS011;24180;42.676;23.320;2023-05-23T10:33:00;7.68;;;5.80;;
38399;SDS011;24180;42.676;23.320;2023-05-23T10:41:05;15.02;;;6.97;;
38399;SDS011;24180;42.676;23.320;2023-05-23T10:52:25;15.38;;;9.40;;
38399;SDS011;24180;42.676;23.320;2023-05-23T10:54:53;7.35;;;6.75;;
38399;SDS011;24180;42.676;23.320;2023-05-23T10:57:24;13.52;;;7.07;;
38399;SDS011;24180;42.676;23.320;2023-05-23T10:59:52;6.55;;;5.95;;
38399;SDS011;24180;42.676;23.320;2023-05-23T11:02:19;10.70;;;5.68;;
38399;SDS011;24180;42.676;23.320;2023-05-23T11:08:08;8.73;;;6.50;;
38399;SDS011;24180;42.676;23.320;2023-05-23T11:13:21;7.70;;;6.43;;
38399;SDS011;24180;42.676;23.320;2023-05-23T11:15:47;7.90;;;7.10;;
38399;SDS011;24180;42.676;23.320;2023-05-23T11:18:35;15.48;;;6.68;;
38399;SDS011;24180;42.676;23.320;2023-05-23T11:20:59;8.55;;;5.30;;
38399;SDS011;24180;42.676;23.320;2023-05-23T11:23:38;6.85;;;5.28;;
38399;SDS011;24180;42.676;23.320;2023-05-23T11:26:05;7.10;;;6.45;;
38399;SDS011;24180;42.676;23.320;2023-05-23T11:28:54;14.07;;;7.22;;
38399;SDS011;24180;42.676;23.320;2023-05-23T11:31:20;10.45;;;6.82;;
38399;SDS011;24180;42.676;23.320;2023-05-23T11:33:46;5.43;;;5.00;;
38399;SDS011;24180;42.676;23.320;2023-05-23T11:36:15;5.38;;;4.97;;
38399;SDS011;24180;42.676;23.320;2023-05-23T11:38:40;6.45;;;5.85;;
38399;SDS011;24180;42.676;23.320;2023-05-23T11:41:06;6.38;;;5.88;;
38399;SDS011;24180;42.676;23.320;2023-05-23T11:43:31;6.47;;;5.45;;
38399;SDS011;24180;42.676;23.320;2023-05-23T11:45:57;5.80;;;5.10;;
38399;SDS011;24180;42.676;23.320;2023-05-23T11:48:32;8.95;;;4.88;;
38399;SDS011;24180;42.676;23.320;2023-05-23T11:50:57;5.50;;;4.85;;
38399;SDS011;24180;42.676;23.320;2023-05-23T11:53:25;7.13;;;6.35;;
38399;SDS011;24180;42.676;23.320;2023-05-23T11:55:57;6.38;;;5.88;;
38399;SDS011;24180;42.676;23.320;2023-05-23T11:58:27;5.35;;;4.93;;
38399;SDS011;24180;42.676;23.320;2023-05-23T12:01:00;6.43;;;5.88;;
38399;SDS011;24180;42.676;23.320;2023-05-23T12:03:30;7.13;;;5.70;;
38399;SDS011;24180;42.676;23.320;2023-05-23T12:05:57;22.40;;;18.65;;
38399;SDS011;24180;42.676;23.320;2023-05-23T12:08:23;6.90;;;5.63;;
38399;SDS011;24180;42.676;23.320;2023-05-23T12:10:52;9.30;;;8.60;;
38399;SDS011;24180;42.676;23.320;2023-05-23T12:13:22;7.10;;;6.60;;
38399;SDS011;24180;42.676;23.320;2023-05-23T12:15:52;9.07;;;8.35;;
38399;SDS011;24180;42.676;23.320;2023-05-23T12:18:19;10.13;;;9.18;;
38399;SDS011;24180;42.676;23.320;2023-05-23T12:20:44;8.57;;;7.95;;
38399;SDS011;24180;42.676;23.320;2023-05-23T12:23:22;12.85;;;10.68;;
38399;SDS011;24180;42.676;23.320;2023-05-23T12:25:51;12.85;;;11.85;;
38399;SDS011;24180;42.676;23.320;2023-05-23T12:28:18;14.63;;;13.63;;
38399;SDS011;24180;42.676;23.320;2023-05-23T12:30:44;12.50;;;11.43;;
38399;SDS011;24180;42.676;23.320;2023-05-23T12:33:10;7.60;;;6.85;;
38399;SDS011;24180;42.676;23.320;2023-05-23T12:35:36;6.90;;;6.15;;
38399;SDS011;24180;42.676;23.320;2023-05-23T12:38:01;6.13;;;5.50;;
38399;SDS011;24180;42.676;23.320;2023-05-23T12:40:34;10.75;;;5.40;;
38399;SDS011;24180;42.676;23.320;2023-05-23T12:43:00;10.50;;;8.95;;
38399;SDS011;24180;42.676;23.320;2023-05-23T12:45:32;7.35;;;6.82;;
38399;SDS011;24180;42.676;23.320;2023-05-23T12:48:00;7.53;;;5.63;;
38399;SDS011;24180;42.676;23.320;2023-05-23T12:50:30;9.70;;;6.78;;
38399;SDS011;24180;42.676;23.320;2023-05-23T12:52:55;17.08;;;9.82;;
38399;SDS011;24180;42.676;23.320;2023-05-23T12:55:21;15.88;;;14.82;;
38399;SDS011;24180;42.676;23.320;2023-05-23T12:57:46;24.88;;;23.17;;
38399;SDS011;24180;42.676;23.320;2023-05-23T13:00:12;10.10;;;9.43;;
38399;SDS011;24180;42.676;23.320;2023-05-23T13:02:38;6.47;;;4.72;;
38399;SDS011;24180;42.676;23.320;2023-05-23T13:05:04;14.98;;;13.95;;
38399;SDS011;24180;42.676;23.320;2023-05-23T13:07:29;19.75;;;18.45;;
38399;SDS011;24180;42.676;23.320;2023-05-23T13:09:55;15.90;;;14.77;;
38399;SDS011;24180;42.676;23.320;2023-05-23T13:12:21;10.88;;;9.75;;
38399;SDS011;24180;42.676;23.320;2023-05-23T13:14:47;20.08;;;18.88;;
38399;SDS011;24180;42.676;23.320;2023-05-23T13:17:13;5.80;;;5.30;;
38399;SDS011;24180;42.676;23.320;2023-05-23T13:19:39;7.93;;;5.45;;
38399;SDS011;24180;42.676;23.320;2023-05-23T13:22:05;5.88;;;5.13;;
38399;SDS011;24180;42.676;23.320;2023-05-23T13:24:34;6.45;;;5.85;;
38399;SDS011;24180;42.676;23.320;2023-05-23T13:27:00;10.32;;;9.73;;
38399;SDS011;24180;42.676;23.320;2023-05-23T13:29:27;9.20;;;8.60;;
38399;SDS011;24180;42.676;23.320;2023-05-23T13:31:52;12.00;;;5.50;;
38399;SDS011;24180;42.676;23.320;2023-05-23T13:34:18;9.60;;;8.80;;
38399;SDS011;24180;42.676;23.320;2023-05-23T13:36:43;8.80;;;6.82;;
38399;SDS011;24180;42.676;23.320;2023-05-23T13:39:08;7.50;;;6.63;;
38399;SDS011;24180;42.676;23.320;2023-05-23T13:41:34;10.70;;;4.88;;
38399;SDS011;24180;42.676;23.320;2023-05-23T13:43:59;6.30;;;5.25;;
38399;SDS011;24180;42.676;23.320;2023-05-23T13:46:25;6.40;;;4.75;;
38399;SDS011;24180;42.676;23.320;2023-05-23T13:48:50;6.10;;;5.47;;
38399;SDS011;24180;42.676;23.320;2023-05-23T13:51:16;5.32;;;4.82;;
38399;SDS011;24180;42.676;23.320;2023-05-23T13:53:41;5.03;;;4.32;;
38399;SDS011;24180;42.676;23.320;2023-05-23T13:56:07;6.07;;;5.50;;
38399;SDS011;24180;42.676;23.320;2023-05-23T13:58:32;6.63;;;5.88;;
38399;SDS011;24180;42.676;23.320;2023-05-23T14:00:57;6.00;;;5.45;;
38399;SDS011;24180;42.676;23.320;2023-05-23T14:03:23;5.68;;;5.07;;
38399;SDS011;24180;42.676;23.320;2023-05-23T14:05:49;5.63;;;5.13;;
38399;SDS011;24180;42.676;23.320;2023-05-23T14:08:14;5.78;;;5.00;;
38399;SDS011;24180;42.676;23.320;2023-05-23T14:10:40;5.57;;;5.00;;
38399;SDS011;24180;42.676;23.320;2023-05-23T14:13:05;6.25;;;5.80;;
38399;SDS011;24180;42.676;23.320;2023-05-23T14:15:32;6.30;;;5.63;;
38399;SDS011;24180;42.676;23.320;2023-05-23T14:17:57;5.50;;;5.10;;
38399;SDS011;24180;42.676;23.320;2023-05-23T14:20:23;5.15;;;4.75;;
38399;SDS011;24180;42.676;23.320;2023-05-23T14:22:49;8.27;;;5.47;;
38399;SDS011;24180;42.676;23.320;2023-05-23T14:25:15;5.25;;;4.75;;
38399;SDS011;24180;42.676;23.320;2023-05-23T14:27:41;5.10;;;4.57;;
38399;SDS011;24180;42.676;23.320;2023-05-23T14:30:07;5.78;;;5.10;;
38399;SDS011;24180;42.676;23.320;2023-05-23T14:32:33;13.73;;;12.95;;
38399;SDS011;24180;42.676;23.320;2023-05-23T14:35:03;7.35;;;6.85;;
38399;SDS011;24180;42.676;23.320;2023-05-23T14:37:29;5.85;;;5.00;;
38399;SDS011;24180;42.676;23.320;2023-05-23T14:39:55;5.32;;;4.90;;
38399;SDS011;24180;42.676;23.320;2023-05-23T14:42:21;6.45;;;5.95;;
38399;SDS011;24180;42.676;23.320;2023-05-23T14:44:46;6.90;;;5.60;;
38399;SDS011;24180;42.676;23.320;2023-05-23T14:47:11;9.07;;;8.38;;
38399;SDS011;24180;42.676;23.320;2023-05-23T14:49:37;5.80;;;5.30;;